Terminal Aerodrome Forecast
Issued by NWS

Current Version | Previous Version | Text Only | Print | Product List | Glossary Off
Versions: 1 2 3 4 5 6 7 8 9 10 11 12 13 14 15 16 17 18 19 20 21 22 23 24 25 26

124
FTUS41 KRLX 192334
TAFCKB
TAF
KCKB 192334Z 2000/2024 00000KT P6SM BKN080
     FM200600 00000KT 6SM BR BKN050
     FM200700 00000KT 5SM BR BKN040
     FM200900 00000KT 1SM BR BKN001
     FM201100 00000KT 1/2SM FG OVC001
     FM201300 00000KT 3SM BR BKN003 BKN040
     FM201400 25003KT P6SM BKN040=

USA.gov is the U.S. government's official web portal to all federal, state and local government web resources and services.